Time;durP1;ratioP1;P1;durP2;ratioP2;P2;SDS_P1;SDS_P2;PMS_P1;PMS_P2;Temp;Humidity;BMP_temperature;BMP_pressure;BME280_temperature;BME280_humidity;BME280_pressure;Samples;Min_cycle;Max_cycle;Signal;HPM_P1;HPM_P2
2024/01/06 00:01:19;;;;;;;;;;;;;;;6.16;100.00;100287.06;5016814;28;20010;-67
2024/01/06 00:03:45;;;;;;;;;;;;;;;6.15;100.00;100290.69;5014272;28;19975;-67
2024/01/06 00:06:13;;;;;;;;;;;;;;;6.14;100.00;100291.66;5012603;28;19932;-67
2024/01/06 00:08:38;;;;;;;;;;;;;;;6.12;100.00;100298.91;5019156;28;19921;-67
2024/01/06 00:11:03;;;;;;;;;;;;;;;6.10;100.00;100295.59;5010701;28;19931;-67
2024/01/06 00:13:29;;;;;;;;;;;;;;;6.08;100.00;100308.09;5009794;28;19923;-67
2024/01/06 00:15:54;;;;;;;;;;;;;;;6.06;100.00;100312.69;5019438;28;19953;-67
2024/01/06 00:18:19;;;;;;;;;;;;;;;6.05;100.00;100309.22;5011233;28;20016;-67
2024/01/06 00:20:44;;;;;;;;;;;;;;;6.01;100.00;100315.78;5008968;28;19952;-68
2024/01/06 00:23:10;;;;;;;;;;;;;;;6.01;100.00;100328.13;5010302;28;19922;-67
2024/01/06 00:25:35;;;;;;;;;;;;;;;5.98;100.00;100329.28;5015719;28;20275;-67
2024/01/06 00:28:00;;;;;;;;;;;;;;;5.97;100.00;100326.78;5009934;28;20662;-67
2024/01/06 00:30:25;;;;;;;;;;;;;;;5.95;100.00;100328.75;5013064;28;19932;-67
2024/01/06 00:32:50;;;;;;;;;;;;;;;5.94;100.00;100330.56;5022426;28;19925;-67
2024/01/06 00:35:16;;;;;;;;;;;;;;;5.93;100.00;100322.81;5012067;28;20028;-67
2024/01/06 00:37:41;;;;;;;;;;;;;;;5.92;100.00;100327.25;5021772;28;19929;-67
2024/01/06 00:40:06;;;;;;;;;;;;;;;5.91;100.00;100325.59;5014868;28;19925;-67
2024/01/06 00:42:32;;;;;;;;;;;;;;;5.90;100.00;100337.94;5019018;28;19924;-67
2024/01/06 00:44:57;;;;;;;;;;;;;;;5.88;100.00;100337.25;5019770;28;20020;-67
2024/01/06 00:47:24;;;;;;;;;;;;;;;5.87;100.00;100340.03;5009792;28;19994;-67
2024/01/06 00:49:49;;;;;;;;;;;;;;;5.85;100.00;100339.34;5011849;28;19928;-67
2024/01/06 00:52:14;;;;;;;;;;;;;;;5.83;100.00;100341.31;5021807;28;19921;-67
2024/01/06 00:54:39;;;;;;;;;;;;;;;5.82;100.00;100343.13;5010768;28;19917;-67
2024/01/06 00:57:05;;;;;;;;;;;;;;;5.80;100.00;100339.81;5023812;28;19925;-67
2024/01/06 00:59:30;;;;;;;;;;;;;;;5.78;100.00;100339.16;5014202;28;19942;-67
2024/01/06 01:01:55;;;;;;;;;;;;;;;5.76;100.00;100335.81;5019595;28;19921;-67
2024/01/06 01:04:20;;;;;;;;;;;;;;;5.75;100.00;100349.97;5017842;28;19921;-67
2024/01/06 01:06:46;;;;;;;;;;;;;;;5.74;100.00;100348.31;5020052;28;20652;-67
2024/01/06 01:09:13;;;;;;;;;;;;;;;5.73;100.00;100353.72;5016952;28;20031;-67
2024/01/06 01:11:38;;;;;;;;;;;;;;;5.72;100.00;100354.72;5023825;28;19925;-67
2024/01/06 01:14:04;;;;;;;;;;;;;;;5.70;100.00;100362.75;5014781;28;20581;-67
2024/01/06 01:16:29;;;;;;;;;;;;;;;5.70;100.00;100362.75;5019499;28;19925;-67
2024/01/06 01:18:54;;;;;;;;;;;;;;;5.69;100.00;100366.38;5014616;28;19931;-67
2024/01/06 01:21:20;;;;;;;;;;;;;;;5.70;100.00;100369.84;5015127;28;19980;-67
2024/01/06 01:23:45;;;;;;;;;;;;;;;5.68;100.00;100370.00;5013911;28;20015;-67
2024/01/06 01:26:10;;;;;;;;;;;;;;;5.66;100.00;100377.22;5016224;28;19951;-67
2024/01/06 01:28:36;;;;;;;;;;;;;;;5.67;100.00;100378.03;5019869;28;19960;-67
2024/01/06 01:31:01;;;;;;;;;;;;;;;5.68;100.00;100387.59;5014914;28;19928;-67
2024/01/06 01:33:26;;;;;;;;;;;;;;;5.69;100.00;100394.53;5017739;28;19921;-67
2024/01/06 01:35:51;;;;;;;;;;;;;;;5.69;100.00;100391.88;5011837;28;20221;-67
2024/01/06 01:38:17;;;;;;;;;;;;;;;5.67;100.00;100394.69;5019468;28;19925;-67
2024/01/06 01:40:42;;;;;;;;;;;;;;;5.65;100.00;100396.63;5009484;28;19932;-67
2024/01/06 01:43:15;;;;;;;;;;;;;;;5.64;100.00;100397.63;5017203;28;19979;-67
2024/01/06 01:45:40;;;;;;;;;;;;;;;5.63;100.00;100403.84;5011041;28;19921;-67
2024/01/06 01:48:06;;;;;;;;;;;;;;;5.64;100.00;100412.59;5011672;28;19921;-67
2024/01/06 01:50:32;;;;;;;;;;;;;;;5.64;100.00;100409.97;5016410;28;19921;-67
2024/01/06 01:52:57;;;;;;;;;;;;;;;5.64;100.00;100416.06;5013382;28;20729;-66
2024/01/06 01:55:22;;;;;;;;;;;;;;;5.63;100.00;100422.31;5015630;28;19925;-67
2024/01/06 01:57:48;;;;;;;;;;;;;;;5.62;100.00;100427.72;5008838;28;19925;-67
2024/01/06 02:00:13;;;;;;;;;;;;;;;5.58;100.00;100438.56;5022052;28;20027;-67
2024/01/06 02:02:38;;;;;;;;;;;;;;;5.54;100.00;100437.19;5012201;28;19939;-67
2024/01/06 02:05:04;;;;;;;;;;;;;;;5.50;100.00;100438.47;5015717;28;20437;-67
2024/01/06 02:07:29;;;;;;;;;;;;;;;5.48;100.00;100429.88;5011111;28;20445;-66
2024/01/06 02:09:55;;;;;;;;;;;;;;;5.48;100.00;100439.56;5021916;28;19917;-66
2024/01/06 02:12:20;;;;;;;;;;;;;;;5.46;100.00;100444.16;5015837;28;19921;-67
2024/01/06 02:14:45;;;;;;;;;;;;;;;5.43;100.00;100442.66;5016646;28;19975;-67
2024/01/06 02:17:10;;;;;;;;;;;;;;;5.45;100.00;100450.41;5012097;28;19925;-67
2024/01/06 02:19:36;;;;;;;;;;;;;;;5.46;100.00;100458.16;5011197;28;19925;-67
2024/01/06 02:22:01;;;;;;;;;;;;;;;5.45;100.00;100453.88;5015593;28;19984;-67
2024/01/06 02:24:26;;;;;;;;;;;;;;;5.46;100.00;100457.31;5017514;28;20047;-67
2024/01/06 02:26:51;;;;;;;;;;;;;;;5.42;100.00;100467.31;5014828;28;20014;-67
2024/01/06 02:29:16;;;;;;;;;;;;;;;5.41;100.00;100463.03;5012494;28;20474;-67
2024/01/06 02:31:42;;;;;;;;;;;;;;;5.40;100.00;100471.09;5015423;28;20477;-66
2024/01/06 02:34:09;;;;;;;;;;;;;;;5.37;100.00;100472.22;5013724;28;20302;-67
2024/01/06 02:36:34;;;;;;;;;;;;;;;5.33;100.00;100475.28;5011355;28;19974;-67
2024/01/06 02:38:59;;;;;;;;;;;;;;;5.25;100.00;100471.56;5012585;28;19986;-67
2024/01/06 02:41:25;;;;;;;;;;;;;;;5.20;100.00;100481.72;5007297;28;19925;-67
2024/01/06 02:43:50;;;;;;;;;;;;;;;5.14;100.00;100479.63;5017728;28;19923;-67
2024/01/06 02:46:15;;;;;;;;;;;;;;;5.11;100.00;100482.56;5013481;28;19917;-67
2024/01/06 02:48:40;;;;;;;;;;;;;;;5.08;100.00;100490.75;5010414;28;20791;-66
2024/01/06 02:51:06;;;;;;;;;;;;;;;5.05;100.00;100488.41;5014064;28;19922;-67
2024/01/06 02:53:31;;;;;;;;;;;;;;;5.02;100.00;100487.88;5011750;28;19929;-67
2024/01/06 02:55:56;;;;;;;;;;;;;;;4.99;100.00;100491.63;5011553;28;20687;-67
2024/01/06 02:58:21;;;;;;;;;;;;;;;4.96;100.00;100495.38;5012345;28;19921;-66
2024/01/06 03:00:46;;;;;;;;;;;;;;;4.93;100.00;100493.03;5013725;28;21398;-67
2024/01/06 03:03:12;;;;;;;;;;;;;;;4.90;100.00;100500.34;5012890;28;20509;-67
2024/01/06 03:05:37;;;;;;;;;;;;;;;4.86;100.00;100499.81;5013512;28;20521;-67
2024/01/06 03:08:03;;;;;;;;;;;;;;;4.83;100.00;100505.34;5011424;28;20465;-66
2024/01/06 03:10:28;;;;;;;;;;;;;;;4.82;100.00;100510.75;5017883;28;19961;-67
2024/01/06 03:12:53;;;;;;;;;;;;;;;4.81;100.00;100517.81;5008468;28;19914;-66
2024/01/06 03:15:19;;;;;;;;;;;;;;;4.80;100.00;100516.16;5015672;28;19933;-67
2024/01/06 03:17:44;;;;;;;;;;;;;;;4.79;100.00;100525.03;5010779;28;20577;-66
2024/01/06 03:20:09;;;;;;;;;;;;;;;4.79;100.00;100524.19;5013652;28;20461;-67
2024/01/06 03:22:34;;;;;;;;;;;;;;;4.81;100.00;100527.50;5019977;28;19924;-67
2024/01/06 03:24:59;;;;;;;;;;;;;;;4.79;100.00;100524.19;5004310;28;19921;-67
2024/01/06 03:27:25;;;;;;;;;;;;;;;4.76;100.00;100541.09;5014318;28;19956;-67
2024/01/06 03:29:50;;;;;;;;;;;;;;;4.76;100.00;100537.63;5013898;28;19928;-67
2024/01/06 03:32:15;;;;;;;;;;;;;;;4.75;100.00;100546.50;5014252;28;19921;-67
2024/01/06 03:34:41;;;;;;;;;;;;;;;4.72;100.00;100544.16;5016339;28;20580;-66
2024/01/06 03:37:06;;;;;;;;;;;;;;;4.69;100.00;100545.25;5012968;28;20009;-67
2024/01/06 03:39:31;;;;;;;;;;;;;;;4.68;100.00;100548.88;5006556;28;19921;-67
2024/01/06 03:41:56;;;;;;;;;;;;;;;4.69;100.00;100554.94;5012576;28;19967;-66
2024/01/06 03:44:21;;;;;;;;;;;;;;;4.69;100.00;100563.69;5005723;28;19932;-67
2024/01/06 03:46:47;;;;;;;;;;;;;;;4.68;100.00;100572.53;5008749;28;20008;-67
2024/01/06 03:49:12;;;;;;;;;;;;;;;4.64;100.00;100568.53;5010078;28;19925;-67
2024/01/06 03:51:37;;;;;;;;;;;;;;;4.64;100.00;100568.53;5018205;28;19979;-67
2024/01/06 03:54:02;;;;;;;;;;;;;;;4.62;100.00;100578.31;5015048;28;19965;-67
2024/01/06 03:56:28;;;;;;;;;;;;;;;4.58;100.00;100569.88;5012409;28;19927;-66
2024/01/06 03:58:53;;;;;;;;;;;;;;;4.56;100.00;100571.00;5013996;28;19925;-66
2024/01/06 04:01:18;;;;;;;;;;;;;;;4.49;100.00;100573.34;5015274;28;21932;-66
2024/01/06 04:03:43;;;;;;;;;;;;;;;4.44;100.00;100567.69;5016865;28;20391;-67
2024/01/06 04:06:08;;;;;;;;;;;;;;;4.43;100.00;100571.28;5016276;28;19961;-67
2024/01/06 04:08:35;;;;;;;;;;;;;;;4.43;100.00;100586.22;5010817;28;19932;-66
2024/01/06 04:11:00;;;;;;;;;;;;;;;4.42;100.00;100579.31;5012561;28;19921;-67
2024/01/06 04:13:26;;;;;;;;;;;;;;;4.44;100.00;100582.63;5013512;28;19936;-66
2024/01/06 04:15:51;;;;;;;;;;;;;;;4.45;100.00;100579.84;5007660;28;19979;-67
2024/01/06 04:18:16;;;;;;;;;;;;;;;4.46;100.00;100584.16;5015162;28;19926;-67
2024/01/06 04:20:42;;;;;;;;;;;;;;;4.47;100.00;100587.59;5013497;28;19945;-66
2024/01/06 04:23:07;;;;;;;;;;;;;;;4.47;100.00;100588.44;5015062;28;19928;-67
2024/01/06 04:25:32;;;;;;;;;;;;;;;4.47;100.00;100587.59;5015778;28;19921;-67
2024/01/06 04:27:57;;;;;;;;;;;;;;;4.47;100.00;100588.44;5022055;28;19961;-66
2024/01/06 04:30:24;;;;;;;;;;;;;;;4.47;100.00;100588.44;5011200;28;19932;-67
2024/01/06 04:32:49;;;;;;;;;;;;;;;4.48;100.00;100590.09;5011588;28;19917;-67
2024/01/06 04:35:15;;;;;;;;;;;;;;;4.47;100.00;100595.50;5012144;28;19932;-67
2024/01/06 04:37:40;;;;;;;;;;;;;;;4.48;100.00;100602.41;5009940;28;19928;-66
2024/01/06 04:40:05;;;;;;;;;;;;;;;4.48;100.00;100599.78;5017467;28;19917;-67
2024/01/06 04:42:31;;;;;;;;;;;;;;;4.48;100.00;100600.63;5016390;28;19932;-66
2024/01/06 04:44:56;;;;;;;;;;;;;;;4.49;100.00;100604.91;5015035;28;19956;-67
2024/01/06 04:47:21;;;;;;;;;;;;;;;4.49;100.00;100599.66;5013193;28;20532;-67
2024/01/06 04:49:46;;;;;;;;;;;;;;;4.48;100.00;100603.25;5009840;28;19936;-66
2024/01/06 04:52:12;;;;;;;;;;;;;;;4.49;100.00;100606.72;5023838;28;19921;-67
2024/01/06 04:54:37;;;;;;;;;;;;;;;4.47;100.00;100606.00;5020229;28;19932;-66
2024/01/06 04:57:02;;;;;;;;;;;;;;;4.44;100.00;100614.19;5013744;28;19925;-66
2024/01/06 04:59:27;;;;;;;;;;;;;;;4.40;100.00;100613.63;5014500;28;20028;-64
2024/01/06 05:01:53;;;;;;;;;;;;;;;4.39;100.00;100626.91;5015117;28;20446;-67
2024/01/06 05:04:18;;;;;;;;;;;;;;;4.38;100.00;100625.25;5017722;28;20383;-67
2024/01/06 05:06:44;;;;;;;;;;;;;;;4.39;100.00;100626.91;5018028;28;19917;-67
2024/01/06 05:09:09;;;;;;;;;;;;;;;4.41;100.00;100630.22;5017552;28;19962;-67
2024/01/06 05:11:34;;;;;;;;;;;;;;;4.39;100.00;100640.06;5017530;28;20271;-67
2024/01/06 05:13:59;;;;;;;;;;;;;;;4.37;100.00;100634.94;5008090;28;20025;-67
2024/01/06 05:16:25;;;;;;;;;;;;;;;4.37;100.00;100645.44;5014811;28;20004;-67
2024/01/06 05:18:50;;;;;;;;;;;;;;;4.39;100.00;100650.56;5008410;28;19971;-66
2024/01/06 05:21:15;;;;;;;;;;;;;;;4.40;100.00;100650.44;5015634;28;19943;-66
2024/01/06 05:23:41;;;;;;;;;;;;;;;4.39;100.00;100654.03;5021210;28;20387;-66
2024/01/06 05:26:06;;;;;;;;;;;;;;;4.40;100.00;100653.06;5011921;28;20511;-66
2024/01/06 05:28:31;;;;;;;;;;;;;;;4.41;100.00;100661.78;5026992;28;20578;-66
2024/01/06 05:30:56;;;;;;;;;;;;;;;4.42;100.00;100661.63;5013268;28;20008;-66
2024/01/06 05:33:22;;;;;;;;;;;;;;;4.44;100.00;100664.13;5014432;28;20019;-66
2024/01/06 05:35:47;;;;;;;;;;;;;;;4.43;100.00;100660.66;5010520;28;20544;-66
2024/01/06 05:38:12;;;;;;;;;;;;;;;4.44;100.00;100669.41;5012769;28;19937;-67
2024/01/06 05:40:37;;;;;;;;;;;;;;;4.42;100.00;100674.78;5009642;28;19925;-66
2024/01/06 05:43:03;;;;;;;;;;;;;;;4.40;100.00;100674.09;5012284;28;20362;-67
2024/01/06 05:45:28;;;;;;;;;;;;;;;4.39;100.00;100677.69;5008629;28;20008;-66
2024/01/06 05:47:53;;;;;;;;;;;;;;;4.38;100.00;100677.81;5017931;28;19936;-67
2024/01/06 05:50:18;;;;;;;;;;;;;;;4.37;100.00;100681.41;5018562;28;19921;-67
2024/01/06 05:52:44;;;;;;;;;;;;;;;4.34;100.00;100685.16;5015608;28;19921;-67
2024/01/06 05:55:09;;;;;;;;;;;;;;;4.31;100.00;100690.66;5014452;28;19925;-68
2024/01/06 05:57:34;;;;;;;;;;;;;;;4.29;100.00;100706.56;5017401;28;19956;-67
2024/01/06 06:00:00;;;;;;;;;;;;;;;4.28;100.00;100704.91;5015210;28;20584;-66
2024/01/06 06:02:25;;;;;;;;;;;;;;;4.26;100.00;100700.75;5009531;28;19918;-67
2024/01/06 06:04:50;;;;;;;;;;;;;;;4.26;100.00;100708.63;5016212;28;19917;-66
2024/01/06 06:07:16;;;;;;;;;;;;;;;4.24;100.00;100705.28;5020007;28;19929;-66
2024/01/06 06:09:41;;;;;;;;;;;;;;;4.23;100.00;100703.63;5015671;28;19928;-66
2024/01/06 06:12:06;;;;;;;;;;;;;;;4.21;100.00;100708.19;5016296;28;19964;-66
2024/01/06 06:14:31;;;;;;;;;;;;;;;4.19;100.00;100710.97;5018112;28;20567;-66
2024/01/06 06:16:56;;;;;;;;;;;;;;;4.17;100.00;100715.50;5013432;28;19937;-66
2024/01/06 06:19:22;;;;;;;;;;;;;;;4.18;100.00;100718.97;5016580;28;20004;-66
2024/01/06 06:21:47;;;;;;;;;;;;;;;4.17;100.00;100723.41;5011424;28;19956;-67
2024/01/06 06:24:13;;;;;;;;;;;;;;;4.15;100.00;100732.38;5014705;28;19921;-67
2024/01/06 06:26:38;;;;;;;;;;;;;;;4.15;100.00;100743.72;5016983;28;20542;-66
2024/01/06 06:29:03;;;;;;;;;;;;;;;4.14;100.00;100739.44;5021305;28;19929;-66
2024/01/06 06:31:29;;;;;;;;;;;;;;;4.15;100.00;100754.25;5019558;28;19929;-66
2024/01/06 06:33:54;;;;;;;;;;;;;;;4.16;100.00;100757.69;5012488;28;19964;-66
2024/01/06 06:36:19;;;;;;;;;;;;;;;4.14;100.00;100757.84;5008203;28;19935;-66
2024/01/06 06:38:44;;;;;;;;;;;;;;;4.12;100.00;100764.19;5013662;28;19923;-66
2024/01/06 06:41:10;;;;;;;;;;;;;;;4.08;100.00;100770.66;5005598;28;19975;-66
2024/01/06 06:43:35;;;;;;;;;;;;;;;4.05;100.00;100771.75;5013677;28;19963;-66
2024/01/06 06:46:00;;;;;;;;;;;;;;;4.05;100.00;100774.38;5011406;28;19944;-66
2024/01/06 06:48:26;;;;;;;;;;;;;;;4.03;100.00;100773.66;5016306;28;20330;-66
2024/01/06 06:50:51;;;;;;;;;;;;;;;4.00;100.00;100790.53;5011186;28;19924;-66
2024/01/06 06:53:16;;;;;;;;;;;;;;;3.99;100.00;100788.84;5008661;28;20415;-66
2024/01/06 06:55:41;;;;;;;;;;;;;;;3.98;100.00;100787.19;5005974;28;20506;-66
2024/01/06 06:58:06;;;;;;;;;;;;;;;3.97;100.00;100779.44;5007298;28;19937;-66
2024/01/06 07:00:32;;;;;;;;;;;;;;;3.96;100.00;100790.91;5019486;28;20290;-66
2024/01/06 07:02:58;;;;;;;;;;;;;;;3.96;100.00;100797.00;5009286;28;20771;-66
2024/01/06 07:05:23;;;;;;;;;;;;;;;3.95;100.00;100797.97;5008984;28;19921;-66
2024/01/06 07:07:48;;;;;;;;;;;;;;;3.96;100.00;100815.38;5012704;28;20659;-66
2024/01/06 07:10:14;;;;;;;;;;;;;;;3.95;100.00;100823.41;5012277;28;19937;-66
2024/01/06 07:12:39;;;;;;;;;;;;;;;3.95;100.00;100824.22;5006474;28;19928;-66
2024/01/06 07:15:04;;;;;;;;;;;;;;;3.95;100.00;100828.66;5005809;28;19921;-66
2024/01/06 07:17:29;;;;;;;;;;;;;;;3.95;100.00;100831.28;5006440;28;20296;-66
2024/01/06 07:19:55;;;;;;;;;;;;;;;3.95;100.00;100829.50;5002593;28;19917;-66
2024/01/06 07:22:20;;;;;;;;;;;;;;;3.95;100.00;100836.53;5002899;28;19913;-66
2024/01/06 07:24:46;;;;;;;;;;;;;;;3.95;100.00;100834.75;5008213;28;19987;-66
2024/01/06 07:27:11;;;;;;;;;;;;;;;3.95;100.00;100842.63;5009438;28;19949;-66
2024/01/06 07:29:37;;;;;;;;;;;;;;;3.94;100.00;100840.97;5006953;28;19929;-66
2024/01/06 07:32:02;;;;;;;;;;;;;;;3.95;100.00;100849.69;5002358;28;20001;-66
2024/01/06 07:34:28;;;;;;;;;;;;;;;3.92;100.00;100845.50;5007265;28;19967;-66
2024/01/06 07:36:53;;;;;;;;;;;;;;;3.93;100.00;100852.44;5004193;28;19937;-66
2024/01/06 07:39:18;;;;;;;;;;;;;;;3.92;100.00;100856.03;5005744;28;19928;-66
2024/01/06 07:41:44;;;;;;;;;;;;;;;3.91;100.00;100854.34;5008710;28;20432;-66
2024/01/06 07:44:10;;;;;;;;;;;;;;;3.93;100.00;100854.22;5010461;28;20021;-66
2024/01/06 07:46:36;;;;;;;;;;;;;;;3.92;100.00;100861.28;5006133;28;19921;-66
2024/01/06 07:49:02;;;;;;;;;;;;;;;3.91;100.00;100864.88;5006609;28;19972;-66
2024/01/06 07:51:27;;;;;;;;;;;;;;;3.90;100.00;100865.81;5005508;28;20040;-66
2024/01/06 07:53:52;;;;;;;;;;;;;;;3.90;100.00;100867.63;5007721;28;19969;-66
2024/01/06 07:56:18;;;;;;;;;;;;;;;3.89;100.00;100873.84;5004516;28;19921;-66
2024/01/06 07:58:43;;;;;;;;;;;;;;;3.90;100.00;100888.63;5003391;28;20095;-66
2024/01/06 08:01:08;;;;;;;;;;;;;;;3.88;100.00;100890.56;5005894;28;19925;-66
2024/01/06 08:03:34;;;;;;;;;;;;;;;3.87;100.00;100889.72;5006498;28;19984;-66
2024/01/06 08:05:59;;;;;;;;;;;;;;;3.86;100.00;100888.06;5002910;28;19967;-66
2024/01/06 08:08:24;;;;;;;;;;;;;;;3.87;100.00;100894.97;5003185;28;20009;-66
2024/01/06 08:10:50;;;;;;;;;;;;;;;3.85;100.00;100902.16;5001524;28;19917;-66
2024/01/06 08:13:15;;;;;;;;;;;;;;;3.85;100.00;100902.16;5007138;28;20337;-66
2024/01/06 08:15:40;;;;;;;;;;;;;;;3.84;100.00;100905.75;5001115;28;19922;-66
2024/01/06 08:18:05;;;;;;;;;;;;;;;3.86;100.00;100913.50;5002370;28;19918;-66
2024/01/06 08:20:31;;;;;;;;;;;;;;;3.86;100.00;100916.94;5005794;28;19921;-66
2024/01/06 08:22:56;;;;;;;;;;;;;;;3.85;100.00;100928.41;5003204;28;21410;-66
2024/01/06 08:25:21;;;;;;;;;;;;;;;3.86;100.00;100926.63;5008370;28;19917;-66
2024/01/06 08:27:47;;;;;;;;;;;;;;;3.86;100.00;100934.50;5001361;28;19962;-66
2024/01/06 08:30:12;;;;;;;;;;;;;;;3.85;100.00;100935.47;5002573;28;19968;-66
2024/01/06 08:32:38;;;;;;;;;;;;;;;3.84;100.00;100931.16;5004465;28;20007;-66
2024/01/06 08:35:03;;;;;;;;;;;;;;;3.81;100.00;100945.38;5010627;28;19921;-66
2024/01/06 08:37:29;;;;;;;;;;;;;;;3.79;100.00;100949.09;5008275;28;20323;-66
2024/01/06 08:39:54;;;;;;;;;;;;;;;3.77;100.00;100943.16;5005688;28;19948;-66
2024/01/06 08:42:19;;;;;;;;;;;;;;;3.75;100.00;100945.88;5005189;28;19931;-66
2024/01/06 08:44:44;;;;;;;;;;;;;;;3.73;100.00;100948.63;5010867;28;19990;-65
2024/01/06 08:47:10;;;;;;;;;;;;;;;3.73;100.00;100947.78;5014208;28;19921;-66
2024/01/06 08:49:35;;;;;;;;;;;;;;;3.74;100.00;100957.31;5019153;28;19968;-66
2024/01/06 08:52:00;;;;;;;;;;;;;;;3.73;100.00;100958.28;5009405;28;19976;-66
2024/01/06 08:54:25;;;;;;;;;;;;;;;3.74;100.00;100962.59;5012633;28;20389;-66
2024/01/06 08:56:50;;;;;;;;;;;;;;;3.77;100.00;100961.53;5012360;28;19948;-66
2024/01/06 08:59:16;;;;;;;;;;;;;;;3.79;100.00;100970.13;5014880;28;19929;-66
2024/01/06 09:01:42;;;;;;;;;;;;;;;3.80;100.00;100977.88;5008794;28;20613;-66
2024/01/06 09:04:07;;;;;;;;;;;;;;;3.79;100.00;100976.19;5004001;28;19924;-66
2024/01/06 09:06:32;;;;;;;;;;;;;;;3.79;100.00;100984.09;5014425;28;20586;-66
2024/01/06 09:08:57;;;;;;;;;;;;;;;3.80;100.00;100984.91;5013751;28;19921;-66
2024/01/06 09:11:23;;;;;;;;;;;;;;;3.80;100.00;100993.63;5016326;28;20184;-66
2024/01/06 09:13:48;;;;;;;;;;;;;;;3.81;100.00;100986.59;5013466;28;20502;-66
2024/01/06 09:16:13;;;;;;;;;;;;;;;3.81;100.00;100995.31;5012164;28;19933;-66
2024/01/06 09:18:39;;;;;;;;;;;;;;;3.79;100.00;100994.59;5008982;28;19922;-66
2024/01/06 09:21:05;;;;;;;;;;;;;;;3.80;100.00;101003.31;5009590;28;19929;-66
2024/01/06 09:23:31;;;;;;;;;;;;;;;3.78;100.00;101005.22;5009986;28;19928;-66
2024/01/06 09:25:57;;;;;;;;;;;;;;;3.78;100.00;101007.84;5007730;28;19925;-66
2024/01/06 09:28:22;;;;;;;;;;;;;;;3.78;100.00;101016.56;5012526;28;20469;-66
2024/01/06 09:30:47;;;;;;;;;;;;;;;3.79;100.00;101020.84;5006923;28;20383;-66
2024/01/06 09:33:15;;;;;;;;;;;;;;;3.81;100.00;101021.56;5011398;28;19925;-66
2024/01/06 09:35:40;;;;;;;;;;;;;;;3.81;100.00;101021.56;5010623;28;19932;-66
2024/01/06 09:38:07;;;;;;;;;;;;;;;3.80;100.00;101030.41;5004318;28;19917;-66
2024/01/06 09:40:33;;;;;;;;;;;;;;;3.81;100.00;101033.88;5008018;28;20303;-66
2024/01/06 09:42:59;;;;;;;;;;;;;;;3.80;100.00;101033.03;5015565;28;19947;-66
2024/01/06 09:45:24;;;;;;;;;;;;;;;3.80;100.00;101045.34;5012802;28;19925;-66
2024/01/06 09:47:50;;;;;;;;;;;;;;;3.80;100.00;101046.16;5007393;28;19931;-66
2024/01/06 09:50:19;;;;;;;;;;;;;;;3.81;100.00;101049.63;5014121;28;19928;-66
2024/01/06 09:52:49;;;;;;;;;;;;;;;3.81;100.00;101047.00;5006201;28;19968;-66
2024/01/06 09:55:14;;;;;;;;;;;;;;;3.81;100.00;101060.97;5006416;28;19929;-66
2024/01/06 09:57:40;;;;;;;;;;;;;;;3.82;100.00;101065.25;5012873;28;19922;-66
2024/01/06 10:00:08;;;;;;;;;;;;;;;3.82;100.00;101070.50;5017271;28;20016;-66
2024/01/06 10:02:33;;;;;;;;;;;;;;;3.82;100.00;101070.50;5015555;28;19932;-66
2024/01/06 10:04:58;;;;;;;;;;;;;;;3.85;100.00;101075.53;5016186;28;19917;-66
2024/01/06 10:07:25;;;;;;;;;;;;;;;3.88;100.00;101080.53;5008353;28;19925;-66
2024/01/06 10:09:50;;;;;;;;;;;;;;;3.90;100.00;101089.13;5008630;28;19917;-66
2024/01/06 10:12:16;;;;;;;;;;;;;;;3.92;100.00;101081.97;5008757;28;20172;-66
2024/01/06 10:14:41;;;;;;;;;;;;;;;3.92;100.00;101086.38;5014182;28;19924;-66
2024/01/06 10:17:07;;;;;;;;;;;;;;;3.92;100.00;101081.13;5008187;28;19925;-66
2024/01/06 10:19:32;;;;;;;;;;;;;;;3.96;100.00;101077.28;5009223;28;19921;-66
2024/01/06 10:22:01;;;;;;;;;;;;;;;3.99;100.00;101077.03;5009332;28;20410;-66
2024/01/06 10:24:27;;;;;;;;;;;;;;;4.00;100.00;101087.44;5004596;28;19940;-66
2024/01/06 10:26:52;;;;;;;;;;;;;;;4.00;100.00;101091.84;5011720;28;19921;-66
2024/01/06 10:29:17;;;;;;;;;;;;;;;4.01;100.00;101096.97;5008932;28;19921;-66
2024/01/06 10:31:42;;;;;;;;;;;;;;;4.01;100.00;101093.53;5014191;28;19921;-66
2024/01/06 10:34:08;;;;;;;;;;;;;;;4.02;100.00;101101.28;5008773;28;20084;-66
2024/01/06 10:36:33;;;;;;;;;;;;;;;4.01;100.00;101102.25;5015294;28;20152;-66
2024/01/06 10:38:58;;;;;;;;;;;;;;;4.02;100.00;101103.06;5006308;28;19925;-66
2024/01/06 10:41:24;;;;;;;;;;;;;;;4.04;100.00;101107.25;5010532;28;19952;-66
2024/01/06 10:43:50;;;;;;;;;;;;;;;4.06;100.00;101108.94;5014773;28;19956;-66
2024/01/06 10:46:18;;;;;;;;;;;;;;;4.06;100.00;101106.31;5010670;28;20386;-66
2024/01/06 10:48:45;;;;;;;;;;;;;;;4.07;100.00;101108.81;5012312;28;19925;-66
2024/01/06 10:51:11;;;;;;;;;;;;;;;4.08;100.00;101097.34;5002816;28;20383;-66
2024/01/06 10:53:38;;;;;;;;;;;;;;;4.09;100.00;101111.31;5011433;28;19924;-66
2024/01/06 10:56:04;;;;;;;;;;;;;;;4.11;100.00;101107.63;5005584;28;19932;-66
2024/01/06 10:58:30;;;;;;;;;;;;;;;4.13;100.00;101115.38;5010735;28;19970;-66
2024/01/06 11:00:56;;;;;;;;;;;;;;;4.16;100.00;101113.34;5003117;28;19917;-67
2024/01/06 11:03:22;;;;;;;;;;;;;;;4.14;100.00;101102.13;5008379;28;20467;-66
2024/01/06 11:05:48;;;;;;;;;;;;;;;4.20;100.00;101117.38;5011191;28;19959;-66
2024/01/06 11:08:15;;;;;;;;;;;;;;;4.21;100.00;101124.31;5005840;28;19952;-66
2024/01/06 11:10:41;;;;;;;;;;;;;;;4.23;100.00;101119.75;5012220;28;20366;-66
2024/01/06 11:13:20;;;;;;;;;;;;;;;4.24;100.00;101123.22;5004799;28;20005;-66
2024/01/06 11:15:50;;;;;;;;;;;;;;;4.22;100.00;101123.34;5004761;28;19921;-66
2024/01/06 11:18:34;;;;;;;;;;;;;;;4.22;100.00;101136.50;5010434;28;19967;-66
2024/01/06 11:21:14;;;;;;;;;;;;;;;4.22;100.00;101133.03;5011356;28;20575;-66
2024/01/06 11:23:40;;;;;;;;;;;;;;;4.24;100.00;101131.13;5010273;28;19925;-66
2024/01/06 11:26:09;;;;;;;;;;;;;;;4.23;100.00;101130.28;5016535;28;19921;-66
2024/01/06 11:28:45;;;;;;;;;;;;;;;4.22;100.00;101135.66;5013604;28;19925;-66
2024/01/06 11:31:10;;;;;;;;;;;;;;;4.19;100.00;101128.84;5015666;28;20474;-67
2024/01/06 11:33:47;;;;;;;;;;;;;;;4.17;100.00;101137.81;5011415;28;20001;-66
2024/01/06 11:36:14;;;;;;;;;;;;;;;4.15;100.00;101132.69;5018258;28;19925;-66
2024/01/06 11:38:39;;;;;;;;;;;;;;;4.12;100.00;101135.56;5013188;28;19963;-66
2024/01/06 11:41:09;;;;;;;;;;;;;;;4.09;100.00;101134.97;5011379;28;19952;-66
2024/01/06 11:43:35;;;;;;;;;;;;;;;4.07;100.00;101137.72;5008398;28;20068;-66
2024/01/06 11:46:02;;;;;;;;;;;;;;;4.07;100.00;101139.53;5008530;28;19914;-66
2024/01/06 11:48:29;;;;;;;;;;;;;;;4.08;100.00;101138.56;5013375;28;19921;-68
2024/01/06 11:50:54;;;;;;;;;;;;;;;4.08;100.00;101141.19;5013352;28;19986;-67
2024/01/06 11:53:20;;;;;;;;;;;;;;;4.08;100.00;101138.56;5012557;28;20378;-66
2024/01/06 11:55:48;;;;;;;;;;;;;;;4.07;100.00;101144.78;5012880;28;19959;-66
2024/01/06 11:58:13;;;;;;;;;;;;;;;4.05;100.00;101144.91;5010154;28;19922;-66
2024/01/06 12:00:39;;;;;;;;;;;;;;;4.04;100.00;101141.41;5010646;28;19913;-66
2024/01/06 12:03:04;;;;;;;;;;;;;;;4.02;100.00;101134.59;5011124;28;19922;-66
2024/01/06 12:05:30;;;;;;;;;;;;;;;4.01;100.00;101139.03;5009264;28;19934;-66
2024/01/06 12:07:56;;;;;;;;;;;;;;;4.02;100.00;101145.13;5010518;28;19921;-66
2024/01/06 12:10:22;;;;;;;;;;;;;;;3.99;100.00;101146.19;5008981;28;20460;-66
2024/01/06 12:13:01;;;;;;;;;;;;;;;3.98;100.00;101143.69;5017587;28;20008;-66
2024/01/06 12:15:27;;;;;;;;;;;;;;;3.98;100.00;101144.53;5015569;28;19971;-66
2024/01/06 12:17:52;;;;;;;;;;;;;;;4.00;100.00;101147.03;5018699;28;19941;-66
2024/01/06 12:20:17;;;;;;;;;;;;;;;4.01;100.00;101149.53;5018065;28;19921;-66
2024/01/06 12:22:44;;;;;;;;;;;;;;;4.01;100.00;101146.91;5013290;28;19925;-66
2024/01/06 12:25:09;;;;;;;;;;;;;;;4.00;100.00;101145.25;5020899;28;19976;-66
2024/01/06 12:27:34;;;;;;;;;;;;;;;3.97;100.00;101148.09;5019761;28;20015;-66